sensor_id;sensor_type;location;lat;lon;timestamp;P1;durP1;ratioP1;P2;durP2;ratioP2
30335;SDS011;17142;47.990;7.846;2023-03-01T09:13:06;21.60;;;13.13;;
30335;SDS011;17142;47.990;7.846;2023-03-01T09:15:32;19.77;;;12.80;;
30335;SDS011;17142;47.990;7.846;2023-03-01T09:17:58;25.63;;;15.20;;
30335;SDS011;17142;47.990;7.846;2023-03-01T09:20:24;19.30;;;14.47;;
30335;SDS011;17142;47.990;7.846;2023-03-01T09:22:50;24.97;;;15.80;;
30335;SDS011;17142;47.990;7.846;2023-03-01T09:25:15;23.80;;;14.40;;
30335;SDS011;17142;47.990;7.846;2023-03-01T09:27:41;20.93;;;14.27;;
30335;SDS011;17142;47.990;7.846;2023-03-01T09:30:07;19.23;;;13.60;;
30335;SDS011;17142;47.990;7.846;2023-03-01T09:32:33;19.57;;;13.83;;
30335;SDS011;17142;47.990;7.846;2023-03-01T09:35:01;20.40;;;13.73;;
30335;SDS011;17142;47.990;7.846;2023-03-01T09:37:29;20.40;;;14.03;;
30335;SDS011;17142;47.990;7.846;2023-03-01T09:39:56;18.00;;;14.40;;
30335;SDS011;17142;47.990;7.846;2023-03-01T09:42:22;21.07;;;14.63;;
30335;SDS011;17142;47.990;7.846;2023-03-01T09:44:50;19.00;;;13.87;;
30335;SDS011;17142;47.990;7.846;2023-03-01T09:50:11;21.83;;;13.53;;
30335;SDS011;17142;47.990;7.846;2023-03-01T09:52:46;23.57;;;14.57;;
30335;SDS011;17142;47.990;7.846;2023-03-01T09:55:22;22.53;;;14.23;;
30335;SDS011;17142;47.990;7.846;2023-03-01T09:57:59;20.60;;;14.63;;
30335;SDS011;17142;47.990;7.846;2023-03-01T10:00:43;22.90;;;14.47;;
30335;SDS011;17142;47.990;7.846;2023-03-01T10:05:59;20.50;;;15.10;;
30335;SDS011;17142;47.990;7.846;2023-03-01T10:10:56;21.47;;;15.33;;
30335;SDS011;17142;47.990;7.846;2023-03-01T10:14:05;18.47;;;12.30;;
30335;SDS011;17142;47.990;7.846;2023-03-01T10:16:34;17.93;;;12.37;;
30335;SDS011;17142;47.990;7.846;2023-03-01T10:19:06;27.50;;;14.67;;
30335;SDS011;17142;47.990;7.846;2023-03-01T10:21:44;22.67;;;13.50;;
30335;SDS011;17142;47.990;7.846;2023-03-01T10:24:15;19.60;;;13.83;;
30335;SDS011;17142;47.990;7.846;2023-03-01T10:29:22;27.83;;;15.97;;
30335;SDS011;17142;47.990;7.846;2023-03-01T10:31:53;19.83;;;13.50;;
30335;SDS011;17142;47.990;7.846;2023-03-01T10:34:29;25.90;;;14.40;;
30335;SDS011;17142;47.990;7.846;2023-03-01T10:37:01;23.10;;;14.77;;
30335;SDS011;17142;47.990;7.846;2023-03-01T10:39:32;18.07;;;14.07;;
30335;SDS011;17142;47.990;7.846;2023-03-01T10:42:01;22.17;;;15.70;;
30335;SDS011;17142;47.990;7.846;2023-03-01T10:44:45;21.67;;;14.17;;
30335;SDS011;17142;47.990;7.846;2023-03-01T10:47:21;23.87;;;12.87;;
30335;SDS011;17142;47.990;7.846;2023-03-01T10:49:51;22.20;;;14.57;;
30335;SDS011;17142;47.990;7.846;2023-03-01T10:52:40;20.60;;;15.17;;
30335;SDS011;17142;47.990;7.846;2023-03-01T10:57:38;23.07;;;14.87;;
30335;SDS011;17142;47.990;7.846;2023-03-01T11:00:22;25.90;;;15.40;;
30335;SDS011;17142;47.990;7.846;2023-03-01T11:03:09;23.77;;;15.77;;
30335;SDS011;17142;47.990;7.846;2023-03-01T11:05:37;20.13;;;14.00;;
30335;SDS011;17142;47.990;7.846;2023-03-01T11:08:25;19.73;;;13.17;;
30335;SDS011;17142;47.990;7.846;2023-03-01T11:11:32;21.63;;;15.60;;
30335;SDS011;17142;47.990;7.846;2023-03-01T11:16:35;20.57;;;13.80;;
30335;SDS011;17142;47.990;7.846;2023-03-01T11:21:42;29.27;;;14.90;;
30335;SDS011;17142;47.990;7.846;2023-03-01T11:24:19;25.73;;;13.67;;
30335;SDS011;17142;47.990;7.846;2023-03-01T11:26:50;20.53;;;14.70;;
30335;SDS011;17142;47.990;7.846;2023-03-01T11:29:32;23.30;;;14.07;;
30335;SDS011;17142;47.990;7.846;2023-03-01T11:32:19;22.10;;;14.83;;
30335;SDS011;17142;47.990;7.846;2023-03-01T11:34:56;26.80;;;16.93;;
30335;SDS011;17142;47.990;7.846;2023-03-01T11:37:35;24.47;;;15.53;;
30335;SDS011;17142;47.990;7.846;2023-03-01T11:40:13;21.60;;;14.60;;
30335;SDS011;17142;47.990;7.846;2023-03-01T11:43:02;29.67;;;14.20;;
30335;SDS011;17142;47.990;7.846;2023-03-01T11:51:34;18.73;;;14.77;;
30335;SDS011;17142;47.990;7.846;2023-03-01T11:56:47;23.40;;;15.93;;
30335;SDS011;17142;47.990;7.846;2023-03-01T12:02:07;23.93;;;16.17;;
30335;SDS011;17142;47.990;7.846;2023-03-01T12:15:50;24.13;;;14.90;;
30335;SDS011;17142;47.990;7.846;2023-03-01T12:18:56;23.27;;;14.43;;
30335;SDS011;17142;47.990;7.846;2023-03-01T12:24:15;21.57;;;15.03;;
30335;SDS011;17142;47.990;7.846;2023-03-01T12:29:25;21.83;;;13.50;;
30335;SDS011;17142;47.990;7.846;2023-03-01T12:34:55;21.50;;;13.60;;
30335;SDS011;17142;47.990;7.846;2023-03-01T12:37:42;22.50;;;15.00;;
30335;SDS011;17142;47.990;7.846;2023-03-01T12:48:47;13.47;;;9.90;;
30335;SDS011;17142;47.990;7.846;2023-03-01T12:51:22;14.77;;;9.97;;
30335;SDS011;17142;47.990;7.846;2023-03-01T12:53:50;17.00;;;11.97;;
30335;SDS011;17142;47.990;7.846;2023-03-01T12:56:23;14.20;;;10.40;;
30335;SDS011;17142;47.990;7.846;2023-03-01T12:59:38;14.10;;;10.60;;
30335;SDS011;17142;47.990;7.846;2023-03-01T13:04:40;18.70;;;10.30;;
30335;SDS011;17142;47.990;7.846;2023-03-01T13:07:29;18.00;;;10.10;;
30335;SDS011;17142;47.990;7.846;2023-03-01T13:31:09;15.13;;;11.67;;
30335;SDS011;17142;47.990;7.846;2023-03-01T13:33:56;15.37;;;11.40;;
30335;SDS011;17142;47.990;7.846;2023-03-01T13:39:03;18.00;;;12.20;;
30335;SDS011;17142;47.990;7.846;2023-03-01T13:44:50;15.37;;;10.80;;
30335;SDS011;17142;47.990;7.846;2023-03-01T13:49:41;16.70;;;11.70;;
30335;SDS011;17142;47.990;7.846;2023-03-01T13:55:00;16.23;;;11.30;;
30335;SDS011;17142;47.990;7.846;2023-03-01T13:57:35;13.70;;;10.77;;
30335;SDS011;17142;47.990;7.846;2023-03-01T14:00:05;14.93;;;11.07;;
30335;SDS011;17142;47.990;7.846;2023-03-01T14:02:31;16.30;;;12.27;;
30335;SDS011;17142;47.990;7.846;2023-03-01T14:05:01;17.07;;;10.97;;
30335;SDS011;17142;47.990;7.846;2023-03-01T14:07:27;16.00;;;10.60;;
30335;SDS011;17142;47.990;7.846;2023-03-01T14:09:57;16.00;;;11.57;;
30335;SDS011;17142;47.990;7.846;2023-03-01T14:20:20;18.97;;;11.90;;
30335;SDS011;17142;47.990;7.846;2023-03-01T14:22:52;16.40;;;11.70;;
30335;SDS011;17142;47.990;7.846;2023-03-01T14:25:24;14.90;;;10.70;;
30335;SDS011;17142;47.990;7.846;2023-03-01T14:27:59;16.40;;;11.30;;
30335;SDS011;17142;47.990;7.846;2023-03-01T14:30:30;17.57;;;12.00;;
30335;SDS011;17142;47.990;7.846;2023-03-01T14:33:16;17.13;;;11.20;;
30335;SDS011;17142;47.990;7.846;2023-03-01T14:36:01;13.43;;;10.20;;
30335;SDS011;17142;47.990;7.846;2023-03-01T14:41:09;14.97;;;10.73;;
30335;SDS011;17142;47.990;7.846;2023-03-01T14:43:55;16.10;;;10.80;;
30335;SDS011;17142;47.990;7.846;2023-03-01T14:48:57;14.20;;;11.13;;
30335;SDS011;17142;47.990;7.846;2023-03-01T14:51:50;18.77;;;11.60;;
30335;SDS011;17142;47.990;7.846;2023-03-01T14:57:14;17.20;;;12.17;;
30335;SDS011;17142;47.990;7.846;2023-03-01T14:59:44;17.77;;;12.47;;
30335;SDS011;17142;47.990;7.846;2023-03-01T15:02:13;20.93;;;12.20;;
30335;SDS011;17142;47.990;7.846;2023-03-01T15:04:48;15.10;;;12.03;;
30335;SDS011;17142;47.990;7.846;2023-03-01T15:07:16;16.10;;;12.93;;
30335;SDS011;17142;47.990;7.846;2023-03-01T15:09:42;16.30;;;11.40;;
30335;SDS011;17142;47.990;7.846;2023-03-01T15:14:55;15.47;;;10.83;;
30335;SDS011;17142;47.990;7.846;2023-03-01T15:17:38;19.17;;;12.40;;
30335;SDS011;17142;47.990;7.846;2023-03-01T15:20:05;18.10;;;11.10;;
30335;SDS011;17142;47.990;7.846;2023-03-01T15:22:43;12.67;;;9.77;;
30335;SDS011;17142;47.990;7.846;2023-03-01T15:25:17;16.50;;;12.27;;
30335;SDS011;17142;47.990;7.846;2023-03-01T15:27:47;14.63;;;10.83;;
30335;SDS011;17142;47.990;7.846;2023-03-01T15:30:17;18.57;;;11.80;;
30335;SDS011;17142;47.990;7.846;2023-03-01T15:35:50;24.50;;;17.00;;
30335;SDS011;17142;47.990;7.846;2023-03-01T15:40:57;26.27;;;18.00;;
30335;SDS011;17142;47.990;7.846;2023-03-01T15:48:50;23.67;;;15.83;;
30335;SDS011;17142;47.990;7.846;2023-03-01T15:51:19;26.07;;;17.03;;
30335;SDS011;17142;47.990;7.846;2023-03-01T15:54:02;25.63;;;16.80;;
30335;SDS011;17142;47.990;7.846;2023-03-01T15:56:33;25.00;;;17.37;;
30335;SDS011;17142;47.990;7.846;2023-03-01T15:59:04;28.90;;;18.10;;
30335;SDS011;17142;47.990;7.846;2023-03-01T16:01:32;25.50;;;17.60;;
30335;SDS011;17142;47.990;7.846;2023-03-01T16:04:02;33.80;;;17.20;;
30335;SDS011;17142;47.990;7.846;2023-03-01T16:06:28;28.93;;;17.43;;
30335;SDS011;17142;47.990;7.846;2023-03-01T16:08:54;29.87;;;17.37;;
30335;SDS011;17142;47.990;7.846;2023-03-01T16:11:20;24.80;;;17.17;;
30335;SDS011;17142;47.990;7.846;2023-03-01T16:13:46;29.27;;;17.13;;
30335;SDS011;17142;47.990;7.846;2023-03-01T16:16:12;27.20;;;15.83;;
30335;SDS011;17142;47.990;7.846;2023-03-01T16:18:41;28.53;;;18.07;;
30335;SDS011;17142;47.990;7.846;2023-03-01T16:21:15;25.60;;;15.90;;
30335;SDS011;17142;47.990;7.846;2023-03-01T16:23:47;23.83;;;16.47;;
30335;SDS011;17142;47.990;7.846;2023-03-01T16:26:16;22.03;;;16.77;;
30335;SDS011;17142;47.990;7.846;2023-03-01T16:28:43;30.73;;;18.87;;
30335;SDS011;17142;47.990;7.846;2023-03-01T16:31:11;27.80;;;17.53;;
30335;SDS011;17142;47.990;7.846;2023-03-01T16:33:45;24.07;;;17.10;;
30335;SDS011;17142;47.990;7.846;2023-03-01T16:36:14;29.53;;;17.50;;
30335;SDS011;17142;47.990;7.846;2023-03-01T16:38:41;27.83;;;18.27;;
30335;SDS011;17142;47.990;7.846;2023-03-01T16:41:11;24.00;;;16.50;;
30335;SDS011;17142;47.990;7.846;2023-03-01T16:43:40;20.03;;;15.47;;
30335;SDS011;17142;47.990;7.846;2023-03-01T16:46:12;26.23;;;16.17;;
30335;SDS011;17142;47.990;7.846;2023-03-01T16:48:42;20.60;;;14.03;;
30335;SDS011;17142;47.990;7.846;2023-03-01T16:51:08;30.50;;;16.60;;
30335;SDS011;17142;47.990;7.846;2023-03-01T16:53:34;27.70;;;17.77;;
30335;SDS011;17142;47.990;7.846;2023-03-01T16:56:05;33.73;;;20.47;;
30335;SDS011;17142;47.990;7.846;2023-03-01T16:58:36;27.40;;;17.50;;
30335;SDS011;17142;47.990;7.846;2023-03-01T17:01:06;33.07;;;19.40;;
30335;SDS011;17142;47.990;7.846;2023-03-01T17:03:39;30.83;;;16.77;;
30335;SDS011;17142;47.990;7.846;2023-03-01T17:06:05;23.87;;;17.20;;
30335;SDS011;17142;47.990;7.846;2023-03-01T17:08:36;24.47;;;16.67;;
30335;SDS011;17142;47.990;7.846;2023-03-01T17:11:20;23.53;;;15.33;;
30335;SDS011;17142;47.990;7.846;2023-03-01T17:13:46;23.67;;;13.70;;
30335;SDS011;17142;47.990;7.846;2023-03-01T17:16:14;22.33;;;13.30;;
30335;SDS011;17142;47.990;7.846;2023-03-01T17:18:41;21.83;;;12.87;;
30335;SDS011;17142;47.990;7.846;2023-03-01T17:21:09;21.43;;;13.80;;
30335;SDS011;17142;47.990;7.846;2023-03-01T17:23:36;19.10;;;14.20;;
30335;SDS011;17142;47.990;7.846;2023-03-01T17:26:03;26.00;;;15.93;;
30335;SDS011;17142;47.990;7.846;2023-03-01T17:28:29;23.17;;;14.57;;
30335;SDS011;17142;47.990;7.846;2023-03-01T17:30:57;19.93;;;15.03;;
30335;SDS011;17142;47.990;7.846;2023-03-01T17:33:24;23.83;;;14.33;;
30335;SDS011;17142;47.990;7.846;2023-03-01T17:35:51;24.73;;;16.30;;
30335;SDS011;17142;47.990;7.846;2023-03-01T17:38:16;24.30;;;16.03;;
30335;SDS011;17142;47.990;7.846;2023-03-01T17:40:44;26.90;;;15.43;;
30335;SDS011;17142;47.990;7.846;2023-03-01T17:43:11;20.40;;;14.77;;
30335;SDS011;17142;47.990;7.846;2023-03-01T17:45:37;20.20;;;13.90;;
30335;SDS011;17142;47.990;7.846;2023-03-01T17:48:04;21.60;;;13.27;;
30335;SDS011;17142;47.990;7.846;2023-03-01T17:50:31;22.67;;;13.87;;
30335;SDS011;17142;47.990;7.846;2023-03-01T17:52:58;24.13;;;16.90;;
30335;SDS011;17142;47.990;7.846;2023-03-01T17:55:24;20.27;;;15.37;;
30335;SDS011;17142;47.990;7.846;2023-03-01T17:57:50;22.90;;;15.00;;
30335;SDS011;17142;47.990;7.846;2023-03-01T18:00:18;23.83;;;15.60;;
30335;SDS011;17142;47.990;7.846;2023-03-01T18:02:44;24.20;;;15.63;;
30335;SDS011;17142;47.990;7.846;2023-03-01T18:05:12;25.90;;;14.80;;
30335;SDS011;17142;47.990;7.846;2023-03-01T18:07:40;21.70;;;15.37;;
30335;SDS011;17142;47.990;7.846;2023-03-01T18:10:08;25.83;;;15.13;;
30335;SDS011;17142;47.990;7.846;2023-03-01T18:12:36;24.80;;;15.27;;
30335;SDS011;17142;47.990;7.846;2023-03-01T18:15:03;21.83;;;13.03;;
30335;SDS011;17142;47.990;7.846;2023-03-01T18:17:30;19.27;;;12.47;;
30335;SDS011;17142;47.990;7.846;2023-03-01T18:19:58;21.63;;;14.90;;
30335;SDS011;17142;47.990;7.846;2023-03-01T18:22:24;20.00;;;15.23;;
30335;SDS011;17142;47.990;7.846;2023-03-01T18:24:50;21.53;;;14.53;;
30335;SDS011;17142;47.990;7.846;2023-03-01T18:27:17;24.10;;;16.30;;
30335;SDS011;17142;47.990;7.846;2023-03-01T18:29:43;23.57;;;15.87;;
30335;SDS011;17142;47.990;7.846;2023-03-01T18:32:09;24.80;;;16.60;;
30335;SDS011;17142;47.990;7.846;2023-03-01T18:34:35;24.60;;;14.87;;
30335;SDS011;17142;47.990;7.846;2023-03-01T18:37:03;22.20;;;13.37;;
30335;SDS011;17142;47.990;7.846;2023-03-01T18:39:31;20.87;;;13.30;;
30335;SDS011;17142;47.990;7.846;2023-03-01T18:41:59;21.23;;;14.23;;
30335;SDS011;17142;47.990;7.846;2023-03-01T18:44:24;19.33;;;13.03;;
30335;SDS011;17142;47.990;7.846;2023-03-01T18:46:50;19.03;;;12.67;;
30335;SDS011;17142;47.990;7.846;2023-03-01T18:49:19;17.97;;;12.97;;
30335;SDS011;17142;47.990;7.846;2023-03-01T18:51:44;22.20;;;15.23;;
30335;SDS011;17142;47.990;7.846;2023-03-01T18:54:14;22.97;;;13.57;;
30335;SDS011;17142;47.990;7.846;2023-03-01T18:56:39;31.33;;;17.90;;
30335;SDS011;17142;47.990;7.846;2023-03-01T18:59:05;30.80;;;16.90;;
30335;SDS011;17142;47.990;7.846;2023-03-01T19:01:31;21.00;;;13.47;;
30335;SDS011;17142;47.990;7.846;2023-03-01T19:03:57;24.13;;;15.73;;
30335;SDS011;17142;47.990;7.846;2023-03-01T19:06:24;25.60;;;17.50;;
30335;SDS011;17142;47.990;7.846;2023-03-01T19:08:56;25.50;;;17.03;;
30335;SDS011;17142;47.990;7.846;2023-03-01T19:11:22;31.40;;;19.40;;
30335;SDS011;17142;47.990;7.846;2023-03-01T19:13:51;24.43;;;17.40;;
30335;SDS011;17142;47.990;7.846;2023-03-01T19:16:19;24.93;;;15.87;;
30335;SDS011;17142;47.990;7.846;2023-03-01T19:18:46;27.73;;;16.47;;
30335;SDS011;17142;47.990;7.846;2023-03-01T19:21:19;23.13;;;15.60;;
30335;SDS011;17142;47.990;7.846;2023-03-01T19:23:46;22.40;;;14.97;;
30335;SDS011;17142;47.990;7.846;2023-03-01T19:26:16;26.83;;;16.40;;
30335;SDS011;17142;47.990;7.846;2023-03-01T19:28:43;31.60;;;20.03;;
30335;SDS011;17142;47.990;7.846;2023-03-01T19:31:16;26.57;;;17.87;;
30335;SDS011;17142;47.990;7.846;2023-03-01T19:33:48;28.53;;;19.50;;
30335;SDS011;17142;47.990;7.846;2023-03-01T19:36:14;27.00;;;16.20;;
30335;SDS011;17142;47.990;7.846;2023-03-01T19:38:42;28.33;;;19.37;;
30335;SDS011;17142;47.990;7.846;2023-03-01T19:41:09;30.60;;;19.47;;
30335;SDS011;17142;47.990;7.846;2023-03-01T19:43:38;32.93;;;19.87;;
30335;SDS011;17142;47.990;7.846;2023-03-01T19:46:05;29.23;;;19.07;;
30335;SDS011;17142;47.990;7.846;2023-03-01T19:48:31;33.63;;;20.60;;
30335;SDS011;17142;47.990;7.846;2023-03-01T19:50:58;29.00;;;19.73;;
30335;SDS011;17142;47.990;7.846;2023-03-01T19:53:26;30.10;;;18.33;;
30335;SDS011;17142;47.990;7.846;2023-03-01T19:55:56;30.17;;;20.40;;
30335;SDS011;17142;47.990;7.846;2023-03-01T19:58:26;28.50;;;19.00;;
30335;SDS011;17142;47.990;7.846;2023-03-01T20:00:52;29.80;;;19.30;;
30335;SDS011;17142;47.990;7.846;2023-03-01T20:03:32;29.60;;;18.50;;
30335;SDS011;17142;47.990;7.846;2023-03-01T20:06:07;29.80;;;18.70;;
30335;SDS011;17142;47.990;7.846;2023-03-01T20:08:37;32.70;;;21.10;;
30335;SDS011;17142;47.990;7.846;2023-03-01T20:11:04;38.33;;;22.43;;
30335;SDS011;17142;47.990;7.846;2023-03-01T20:13:31;36.60;;;21.40;;
30335;SDS011;17142;47.990;7.846;2023-03-01T20:15:57;37.50;;;20.43;;
30335;SDS011;17142;47.990;7.846;2023-03-01T20:18:23;26.40;;;18.00;;
30335;SDS011;17142;47.990;7.846;2023-03-01T20:20:49;26.43;;;18.67;;
30335;SDS011;17142;47.990;7.846;2023-03-01T20:23:16;32.57;;;19.27;;
30335;SDS011;17142;47.990;7.846;2023-03-01T20:25:46;28.37;;;18.80;;
30335;SDS011;17142;47.990;7.846;2023-03-01T20:28:15;29.80;;;21.00;;
30335;SDS011;17142;47.990;7.846;2023-03-01T20:30:44;27.60;;;17.60;;
30335;SDS011;17142;47.990;7.846;2023-03-01T20:33:10;30.17;;;16.73;;
30335;SDS011;17142;47.990;7.846;2023-03-01T20:35:39;27.53;;;17.87;;
30335;SDS011;17142;47.990;7.846;2023-03-01T20:38:07;31.83;;;18.20;;
30335;SDS011;17142;47.990;7.846;2023-03-01T20:40:33;29.20;;;16.93;;
30335;SDS011;17142;47.990;7.846;2023-03-01T20:43:00;32.00;;;20.13;;
30335;SDS011;17142;47.990;7.846;2023-03-01T20:45:28;29.00;;;21.13;;
30335;SDS011;17142;47.990;7.846;2023-03-01T20:47:56;31.93;;;19.90;;
30335;SDS011;17142;47.990;7.846;2023-03-01T20:50:24;27.83;;;18.67;;
30335;SDS011;17142;47.990;7.846;2023-03-01T20:52:52;35.27;;;18.70;;
30335;SDS011;17142;47.990;7.846;2023-03-01T20:55:20;28.97;;;18.77;;
30335;SDS011;17142;47.990;7.846;2023-03-01T20:57:48;31.47;;;19.30;;
30335;SDS011;17142;47.990;7.846;2023-03-01T21:00:18;28.60;;;19.97;;
30335;SDS011;17142;47.990;7.846;2023-03-01T21:02:47;29.00;;;18.27;;
30335;SDS011;17142;47.990;7.846;2023-03-01T21:05:15;33.10;;;19.30;;
30335;SDS011;17142;47.990;7.846;2023-03-01T21:07:43;35.60;;;18.37;;
30335;SDS011;17142;47.990;7.846;2023-03-01T21:10:11;30.30;;;18.73;;
30335;SDS011;17142;47.990;7.846;2023-03-01T21:12:37;35.17;;;21.13;;
30335;SDS011;17142;47.990;7.846;2023-03-01T21:15:05;30.40;;;19.27;;
30335;SDS011;17142;47.990;7.846;2023-03-01T21:17:31;28.47;;;18.03;;
30335;SDS011;17142;47.990;7.846;2023-03-01T21:19:57;28.90;;;19.73;;
30335;SDS011;17142;47.990;7.846;2023-03-01T21:22:25;36.47;;;21.10;;
30335;SDS011;17142;47.990;7.846;2023-03-01T21:24:54;32.17;;;20.20;;
30335;SDS011;17142;47.990;7.846;2023-03-01T21:27:20;35.80;;;18.37;;
30335;SDS011;17142;47.990;7.846;2023-03-01T21:29:45;34.13;;;19.87;;
30335;SDS011;17142;47.990;7.846;2023-03-01T21:32:12;30.80;;;17.87;;
30335;SDS011;17142;47.990;7.846;2023-03-01T21:34:38;37.57;;;20.13;;
30335;SDS011;17142;47.990;7.846;2023-03-01T21:37:11;32.53;;;20.10;;
30335;SDS011;17142;47.990;7.846;2023-03-01T21:39:36;28.50;;;18.57;;
30335;SDS011;17142;47.990;7.846;2023-03-01T21:42:05;34.50;;;18.10;;
30335;SDS011;17142;47.990;7.846;2023-03-01T21:44:31;26.60;;;15.40;;
30335;SDS011;17142;47.990;7.846;2023-03-01T21:46:59;25.43;;;16.67;;
30335;SDS011;17142;47.990;7.846;2023-03-01T21:49:29;27.40;;;18.13;;
30335;SDS011;17142;47.990;7.846;2023-03-01T21:51:54;30.77;;;19.50;;
30335;SDS011;17142;47.990;7.846;2023-03-01T21:54:20;26.03;;;17.70;;
30335;SDS011;17142;47.990;7.846;2023-03-01T21:56:48;26.80;;;18.77;;
30335;SDS011;17142;47.990;7.846;2023-03-01T21:59:18;33.53;;;19.80;;
30335;SDS011;17142;47.990;7.846;2023-03-01T22:01:49;33.37;;;20.10;;
30335;SDS011;17142;47.990;7.846;2023-03-01T22:04:18;36.77;;;22.07;;
30335;SDS011;17142;47.990;7.846;2023-03-01T22:06:45;35.60;;;23.37;;
30335;SDS011;17142;47.990;7.846;2023-03-01T22:09:15;39.33;;;21.40;;
30335;SDS011;17142;47.990;7.846;2023-03-01T22:11:45;32.73;;;20.03;;
30335;SDS011;17142;47.990;7.846;2023-03-01T22:14:15;30.27;;;19.10;;
30335;SDS011;17142;47.990;7.846;2023-03-01T22:16:44;35.30;;;22.20;;
30335;SDS011;17142;47.990;7.846;2023-03-01T22:19:11;31.67;;;20.13;;
30335;SDS011;17142;47.990;7.846;2023-03-01T22:21:39;34.50;;;21.43;;
30335;SDS011;17142;47.990;7.846;2023-03-01T22:24:06;31.87;;;21.07;;
30335;SDS011;17142;47.990;7.846;2023-03-01T22:26:33;32.60;;;18.67;;
30335;SDS011;17142;47.990;7.846;2023-03-01T22:29:00;25.50;;;18.70;;
30335;SDS011;17142;47.990;7.846;2023-03-01T22:31:27;32.27;;;19.30;;
30335;SDS011;17142;47.990;7.846;2023-03-01T22:33:53;30.70;;;19.23;;
30335;SDS011;17142;47.990;7.846;2023-03-01T22:36:19;31.80;;;18.67;;
30335;SDS011;17142;47.990;7.846;2023-03-01T22:38:46;33.53;;;18.70;;
30335;SDS011;17142;47.990;7.846;2023-03-01T22:41:12;33.40;;;18.70;;
30335;SDS011;17142;47.990;7.846;2023-03-01T22:43:38;34.57;;;20.33;;
30335;SDS011;17142;47.990;7.846;2023-03-01T22:46:11;30.50;;;19.07;;
30335;SDS011;17142;47.990;7.846;2023-03-01T22:48:38;31.60;;;19.63;;
30335;SDS011;17142;47.990;7.846;2023-03-01T22:51:06;35.60;;;22.17;;
30335;SDS011;17142;47.990;7.846;2023-03-01T22:53:34;29.60;;;18.40;;
30335;SDS011;17142;47.990;7.846;2023-03-01T22:56:08;30.93;;;20.73;;
30335;SDS011;17142;47.990;7.846;2023-03-01T22:58:42;29.93;;;19.63;;
30335;SDS011;17142;47.990;7.846;2023-03-01T23:01:09;30.43;;;19.30;;
30335;SDS011;17142;47.990;7.846;2023-03-01T23:03:39;30.40;;;20.13;;
30335;SDS011;17142;47.990;7.846;2023-03-01T23:06:04;34.80;;;21.47;;
30335;SDS011;17142;47.990;7.846;2023-03-01T23:08:30;27.87;;;17.03;;
30335;SDS011;17142;47.990;7.846;2023-03-01T23:10:56;28.17;;;18.00;;
30335;SDS011;17142;47.990;7.846;2023-03-01T23:13:21;28.37;;;18.63;;
30335;SDS011;17142;47.990;7.846;2023-03-01T23:15:51;29.77;;;17.37;;
30335;SDS011;17142;47.990;7.846;2023-03-01T23:18:18;30.40;;;18.67;;
30335;SDS011;17142;47.990;7.846;2023-03-01T23:20:43;31.20;;;18.80;;
30335;SDS011;17142;47.990;7.846;2023-03-01T23:23:12;27.87;;;18.00;;
30335;SDS011;17142;47.990;7.846;2023-03-01T23:25:37;32.00;;;18.40;;
30335;SDS011;17142;47.990;7.846;2023-03-01T23:28:03;33.67;;;19.40;;
30335;SDS011;17142;47.990;7.846;2023-03-01T23:30:31;29.00;;;17.90;;
30335;SDS011;17142;47.990;7.846;2023-03-01T23:32:59;25.00;;;17.90;;
30335;SDS011;17142;47.990;7.846;2023-03-01T23:35:25;22.50;;;15.70;;
30335;SDS011;17142;47.990;7.846;2023-03-01T23:37:51;21.80;;;14.47;;
30335;SDS011;17142;47.990;7.846;2023-03-01T23:40:21;22.90;;;15.13;;
30335;SDS011;17142;47.990;7.846;2023-03-01T23:42:50;24.60;;;15.70;;
30335;SDS011;17142;47.990;7.846;2023-03-01T23:45:15;23.10;;;15.30;;
30335;SDS011;17142;47.990;7.846;2023-03-01T23:47:41;25.77;;;14.30;;
30335;SDS011;17142;47.990;7.846;2023-03-01T23:50:08;25.77;;;13.23;;
30335;SDS011;17142;47.990;7.846;2023-03-01T23:52:35;19.00;;;13.40;;
30335;SDS011;17142;47.990;7.846;2023-03-01T23:55:05;20.97;;;13.40;;
30335;SDS011;17142;47.990;7.846;2023-03-01T23:57:35;23.63;;;13.73;;
